Hanseatic Scout — V2BM2 — position and weather

sailwx.info

Track history (hours):
 
Tides and Currents Weather Stations Pressure Air Temp Water Temp Dewpoint Dewpoint Depression Visibility Wind Speed Wind Dir Waves Ship Positions

Hanseatic Scout

Last reported at 2017-Jun-25 20:29 UTC. Time now 2017-Jun-25 20:55 UTC.
Position N 51°54' E 004°14'.

Length 89 m; draft 3.6 m.

Type: Ship. MMSI: 304867000.

Date/timePositionNaut miles runAvg speedWind from/ knotsBaromVisibWave heightAir tempDewpointWater temp
2017-Jun-25 20:29N 51°54' E 004°14'0 0.0
2017-Jun-25 20:01N 51°54' E 004°14'0 0.0
2017-Jun-25 19:30N 51°54' E 004°14'0 0.0
2017-Jun-25 19:00N 51°54' E 004°14'0 0.0
2017-Jun-25 18:30N 51°54' E 004°14'0 0.0
2017-Jun-25 18:00N 51°54' E 004°14'0 0.0
2017-Jun-25 17:29N 51°54' E 004°14'0 0.0
2017-Jun-25 17:00N 51°54' E 004°14'0 0.0
2017-Jun-25 16:30N 51°54' E 004°14'0 0.0
2017-Jun-25 16:00N 51°54' E 004°14'0 0.0
2017-Jun-25 15:30N 51°54' E 004°14'0 0.0
2017-Jun-25 15:00N 51°54' E 004°14'0 0.0
2017-Jun-25 14:30N 51°54' E 004°14'0 0.0
2017-Jun-25 13:30N 51°54' E 004°14'0 0.0
2017-Jun-25 13:00N 51°54' E 004°14'0 0.1
2017-Jun-25 12:30N 51°54' E 004°14'0 0.0
2017-Jun-25 12:00N 51°54' E 004°14'0 0.0
2017-Jun-25 11:30N 51°54' E 004°14'0 0.1
2017-Jun-25 11:00N 51°54' E 004°14'0 0.0
2017-Jun-25 10:29N 51°54' E 004°14'0 0.0
2017-Jun-25 10:00N 51°54' E 004°14'0 0.0
2017-Jun-25 09:29N 51°54' E 004°14'0 0.0
2017-Jun-25 09:00N 51°54' E 004°14'0 0.0
2017-Jun-25 08:30N 51°54' E 004°14'0 0.0
2017-Jun-25 08:00N 51°54' E 004°14'0 0.0
2017-Jun-25 07:30N 51°54' E 004°14'0 0.0
2017-Jun-25 06:59N 51°54' E 004°14'0 0.0
2017-Jun-25 06:30N 51°54' E 004°14'0 0.0
2017-Jun-25 06:00N 51°54' E 004°14'0 0.0
2017-Jun-25 05:30N 51°54' E 004°14'0 0.0
2017-Jun-25 05:01N 51°54' E 004°14'0 0.0
2017-Jun-25 04:30N 51°54' E 004°14'0 0.0
2017-Jun-25 04:01N 51°54' E 004°14'0 0.0
2017-Jun-25 03:30N 51°54' E 004°14'0 0.1
2017-Jun-25 03:00N 51°54' E 004°14'3 5.4
2017-Jun-25 02:30N 51°56' E 004°12'4 7.6
2017-Jun-25 02:01N 51°58' E 004°07'511.0
2017-Jun-25 01:30N 52°00' E 003°58'510.5
2017-Jun-25 01:01N 52°01' E 003°50'4 8.3
2017-Jun-25 00:30N 52°05' E 003°47'713.4
2017-Jun-25 00:00N 52°12' E 003°47'0 0.4
2017-Jun-24 23:30N 52°12' E 003°47'4 7.0
2017-Jun-24 22:54N 52°16' E 003°47'8 7.0
2017-Jun-24 21:47N 52°24' E 003°50'2 7.7
2017-Jun-24 21:30N 52°24' E 003°53'4 8.0
2017-Jun-24 21:00N 52°25' E 003°59'4 7.7
2017-Jun-24 20:30N 52°26' E 004°06'611.1
2017-Jun-24 20:00N 52°27' E 004°15'510.6
2017-Jun-24 19:30N 52°27' E 004°23'5 9.7
2017-Jun-24 19:00N 52°28' E 004°31'3 6.0
2017-Jun-24 18:31N 52°28' E 004°36'2 4.2
2017-Jun-24 18:01N 52°28' E 004°39'611.6
2017-Jun-24 17:30N 52°25' E 004°48'2 4.8
2017-Jun-24 17:00N 52°24' E 004°51'0 0.0
2017-Jun-24 16:30N 52°24' E 004°51'0 0.0
2017-Jun-24 16:00N 52°24' E 004°51'0 0.0
2017-Jun-24 15:30N 52°24' E 004°51'0 0.0
2017-Jun-24 15:00N 52°24' E 004°51'0 0.0
2017-Jun-24 14:00N 52°24' E 004°51'0 0.0
2017-Jun-24 13:30N 52°24' E 004°51'0 0.0
2017-Jun-24 13:00N 52°24' E 004°51'0 0.0
2017-Jun-24 12:30N 52°24' E 004°51'0 0.0
2017-Jun-24 12:00N 52°24' E 004°51'0 0.0
2017-Jun-24 11:30N 52°24' E 004°51'0 0.0
2017-Jun-24 11:00N 52°24' E 004°51'0 0.0
2017-Jun-24 10:30N 52°24' E 004°51'0 0.0
2017-Jun-24 09:59N 52°24' E 004°51'0 0.0
2017-Jun-24 09:29N 52°24' E 004°51'0 0.0
2017-Jun-24 08:59N 52°24' E 004°51'0 0.0
2017-Jun-24 08:29N 52°24' E 004°51'0 0.0
2017-Jun-24 07:59N 52°24' E 004°51'0 0.0
2017-Jun-24 07:29N 52°24' E 004°51'0 0.0
2017-Jun-24 06:59N 52°24' E 004°51'0 0.0
2017-Jun-24 06:29N 52°24' E 004°51'0 0.4
2017-Jun-24 06:00N 52°24' E 004°52'1 3.0
2017-Jun-24 05:31N 52°25' E 004°50'5 9.5
2017-Jun-24 05:00N 52°26' E 004°42'4 8.0
2017-Jun-24 04:31N 52°28' E 004°36'0 0.4
2017-Jun-24 04:01N 52°28' E 004°36'0 0.0
2017-Jun-24 03:30N 52°28' E 004°36'0 0.0
2017-Jun-24 03:01N 52°28' E 004°36'0 0.0
2017-Jun-24 02:30N 52°28' E 004°36'0 0.0
2017-Jun-24 02:00N 52°28' E 004°36'0 0.0
2017-Jun-24 01:30N 52°28' E 004°36'0 0.0
2017-Jun-24 01:00N 52°28' E 004°36'0 0.0
2017-Jun-24 00:30N 52°28' E 004°36'0 0.2
2017-Jun-24 00:01N 52°28' E 004°36'3 5.8
2017-Jun-23 23:31N 52°28' E 004°31'4 8.4
2017-Jun-23 23:00N 52°28' E 004°24'3 6.2
2017-Jun-23 22:30N 52°28' E 004°19'3 6.6
2017-Jun-23 22:00N 52°29' E 004°14'4 7.4
2017-Jun-23 21:30N 52°31' E 004°08'4 7.9
2017-Jun-23 21:00N 52°34' E 004°06'4 7.6
2017-Jun-23 20:30N 52°38' E 004°03'4 7.5
2017-Jun-23 19:59N 52°41' E 004°01'59 7.3
2017-Jun-23 11:55N 53°36' E 004°39'3 7.0
2017-Jun-23 11:30N 53°39' E 004°41'4 6.9
2017-Jun-23 10:55N 53°42' E 004°43'4 9.8
2017-Jun-23 10:29N 53°46' E 004°45'510.2
2017-Jun-23 10:00N 53°51' E 004°48'510.0
2017-Jun-23 09:28N 53°56' E 004°51'5 9.9
2017-Jun-23 08:58N 54°01' E 004°55'5 9.6
2017-Jun-23 08:25N 54°05' E 004°58'410.0
2017-Jun-23 07:58N 54°10' E 004°57'510.1
2017-Jun-23 07:29N 54°15' E 004°56'510.1
2017-Jun-23 07:00N 54°20' E 004°55'510.2
2017-Jun-23 06:29N 54°25' E 004°53'510.3
2017-Jun-23 05:58N 54°30' E 004°52'510.3
2017-Jun-23 05:30N 54°35' E 004°50'610.4
2017-Jun-23 04:54N 54°41' E 004°49'510.4
2017-Jun-23 04:27N 54°46' E 004°47'610.4
2017-Jun-23 03:50N 54°52' E 004°46'510.3
2017-Jun-23 03:20N 54°57' E 004°45'510.2
2017-Jun-23 02:52N 55°02' E 004°43'412 9.7
2017-Jun-21 08:32N 61°53' E 004°36'1 9.8
2017-Jun-21 08:26N 61°54' E 004°37'5 9.8
2017-Jun-21 07:54N 61°59' E 004°41'4 9.3
2017-Jun-21 07:29N 62°03' E 004°44'4 9.1
2017-Jun-21 07:00N 62°07' E 004°48'5 9.3
2017-Jun-21 06:30N 62°11' E 004°52'4 9.0
2017-Jun-21 06:00N 62°14' E 004°58'5 8.7
2017-Jun-21 05:29N 62°18' E 005°03'4 8.4
2017-Jun-21 05:00N 62°22' E 005°08'4 8.2
2017-Jun-21 04:30N 62°25' E 005°14'4 8.6
2017-Jun-21 04:00N 62°28' E 005°20'4 8.9
2017-Jun-21 03:30N 62°31' E 005°26'4 8.7
2017-Jun-21 03:00N 62°34' E 005°33'5 8.9
2017-Jun-21 02:30N 62°37' E 005°40'4 8.6
2017-Jun-21 02:00N 62°40' E 005°46'4 8.5
2017-Jun-21 01:30N 62°43' E 005°53'4 8.4
2017-Jun-21 01:00N 62°47' E 005°59'4 8.1
2017-Jun-21 00:30N 62°50' E 006°05'4 8.1
2017-Jun-21 00:00N 62°52' E 006°12'4 8.1
2017-Jun-20 23:30N 62°54' E 006°19'4 8.4
2017-Jun-20 23:00N 62°57' E 006°27'4 8.3
2017-Jun-20 22:30N 62°59' E 006°34'4 7.8
2017-Jun-20 21:59N 63°01' E 006°42'4 7.9
2017-Jun-20 21:29N 63°04' E 006°49'4 7.8
2017-Jun-20 21:00N 63°06' E 006°55'4 7.8
2017-Jun-20 20:30N 63°08' E 007°02'4 7.8
2017-Jun-20 20:00N 63°10' E 007°10'4 7.4
2017-Jun-20 19:30N 63°13' E 007°16'3 6.9
2017-Jun-20 19:00N 63°14' E 007°23'4 7.1
2017-Jun-20 18:30N 63°15' E 007°31'3 6.8
2017-Jun-20 18:00N 63°15' E 007°39'4 7.7
2017-Jun-20 17:30N 63°12' E 007°45'5 9.4
2017-Jun-20 17:00N 63°08' E 007°41'5 9.7
2017-Jun-20 16:30N 63°03' E 007°41'4 8.0
2017-Jun-20 16:00N 62°59' E 007°42'510.8
2017-Jun-20 15:30N 62°56' E 007°32'4 7.6
2017-Jun-20 15:00N 62°57' E 007°24'0 0.0
2017-Jun-20 14:27N 62°57' E 007°24'0 0.0
2017-Jun-20 13:27N 62°57' E 007°24'0 0.0
2017-Jun-20 13:00N 62°57' E 007°24'0 0.0
2017-Jun-20 12:30N 62°57' E 007°24'0 0.0
2017-Jun-20 11:57N 62°57' E 007°24'0 0.0
2017-Jun-20 11:30N 62°57' E 007°24'0 0.0
2017-Jun-20 11:00N 62°57' E 007°24'0 0.0
2017-Jun-20 10:27N 62°57' E 007°24'0 0.0
2017-Jun-20 10:00N 62°57' E 007°24'0 0.0
2017-Jun-20 09:30N 62°57' E 007°24'0 0.0
2017-Jun-20 09:00N 62°57' E 007°24'0 0.0
2017-Jun-20 08:27N 62°57' E 007°24'0 0.0
2017-Jun-20 07:57N 62°57' E 007°24'0 0.0
2017-Jun-20 07:27N 62°57' E 007°24'0 0.0
2017-Jun-20 07:00N 62°57' E 007°24'0 0.0
2017-Jun-20 06:27N 62°57' E 007°24'0 0.0
2017-Jun-20 06:00N 62°57' E 007°24'0 0.0
2017-Jun-20 05:30N 62°57' E 007°24'0 0.0
2017-Jun-20 05:00N 62°57' E 007°24'0 0.0
2017-Jun-20 04:27N 62°57' E 007°24'0 0.0
2017-Jun-20 03:54N 62°57' E 007°24'0 0.0
2017-Jun-20 03:30N 62°57' E 007°24'0 0.0
2017-Jun-20 03:00N 62°57' E 007°24'0 0.0
2017-Jun-20 02:27N 62°57' E 007°24'0 0.0
2017-Jun-20 01:57N 62°57' E 007°24'0 0.0
2017-Jun-20 01:24N 62°57' E 007°24'2 4.6
2017-Jun-20 00:59N 62°57' E 007°28'5 9.6
2017-Jun-20 00:30N 62°58' E 007°38'611.5
2017-Jun-20 00:00N 63°01' E 007°49'611.2
2017-Jun-19 23:30N 63°05' E 007°56'510.0
2017-Jun-19 23:00N 63°09' E 007°49'4 8.2
2017-Jun-19 22:30N 63°13' E 007°54'510.4
2017-Jun-19 22:00N 63°15' E 008°04'510.3
2017-Jun-19 21:30N 63°18' E 008°14'510.5
2017-Jun-19 21:00N 63°22' E 008°23'510.5
2017-Jun-19 20:30N 63°25' E 008°32'510.1
2017-Jun-19 20:00N 63°26' E 008°43'510.2
2017-Jun-19 19:30N 63°28' E 008°54'510.3
2017-Jun-19 19:00N 63°28' E 009°05'711.7
2017-Jun-19 18:26N 63°22' E 009°12'3 6.7
2017-Jun-19 17:58N 63°19' E 009°09'0 0.0
2017-Jun-19 17:28N 63°19' E 009°09'0 0.0
2017-Jun-19 16:55N 63°19' E 009°09'0 0.0
2017-Jun-19 16:28N 63°19' E 009°09'0 0.0
2017-Jun-19 15:58N 63°19' E 009°09'0 0.0
2017-Jun-19 15:28N 63°19' E 009°09'0 0.0
2017-Jun-19 14:58N 63°19' E 009°09'0 0.0
2017-Jun-19 14:28N 63°19' E 009°09'0 0.0
2017-Jun-19 13:28N 63°19' E 009°09'0 0.0
2017-Jun-19 12:58N 63°19' E 009°09'0 0.0
2017-Jun-19 12:28N 63°19' E 009°09'0 0.0
2017-Jun-19 11:58N 63°19' E 009°09'0 0.0
2017-Jun-19 11:28N 63°19' E 009°09'0 0.0
2017-Jun-19 10:58N 63°19' E 009°09'0 0.0
2017-Jun-19 10:28N 63°19' E 009°09'0 0.0
2017-Jun-19 09:58N 63°19' E 009°09'0 0.0
2017-Jun-19 09:28N 63°19' E 009°09'0 0.0
2017-Jun-19 08:58N 63°19' E 009°09'0 0.0
2017-Jun-19 08:28N 63°19' E 009°09'0 0.0
2017-Jun-19 07:58N 63°19' E 009°09'0 0.0
2017-Jun-19 07:28N 63°19' E 009°09'0 0.0
2017-Jun-19 06:58N 63°19' E 009°09'0 0.0
2017-Jun-19 06:28N 63°19' E 009°09'0 0.0
2017-Jun-19 05:58N 63°19' E 009°09'0 0.0
2017-Jun-19 05:28N 63°19' E 009°09'0 0.0
2017-Jun-19 04:58N 63°19' E 009°09'0 0.0
2017-Jun-19 04:28N 63°19' E 009°09'0 0.0
2017-Jun-19 03:58N 63°19' E 009°09'0 0.0
2017-Jun-19 03:28N 63°19' E 009°09'0 0.0
2017-Jun-19 02:58N 63°19' E 009°09'0 0.0
2017-Jun-19 02:28N 63°19' E 009°09'0 0.0
2017-Jun-19 01:55N 63°19' E 009°09'0 0.0
2017-Jun-19 01:28N 63°19' E 009°09'0 0.0
2017-Jun-19 00:58N 63°19' E 009°09'0 0.0
2017-Jun-19 00:28N 63°19' E 009°09'0 0.0
2017-Jun-18 23:58N 63°19' E 009°09'0 0.0
2017-Jun-18 23:28N 63°19' E 009°09'0 0.0
2017-Jun-18 22:58N 63°19' E 009°09'0 0.0
2017-Jun-18 22:28N 63°19' E 009°09'0 0.0
2017-Jun-18 21:58N 63°19' E 009°09'0 0.0
2017-Jun-18 21:28N 63°19' E 009°09'0 0.0
2017-Jun-18 20:58N 63°19' E 009°09'0 0.0
2017-Jun-18 20:28N 63°19' E 009°09'0 0.0
2017-Jun-18 19:58N 63°19' E 009°09'0 0.0
2017-Jun-18 19:28N 63°19' E 009°09'0 0.0
2017-Jun-18 18:58N 63°19' E 009°09'0 0.0
2017-Jun-18 18:28N 63°19' E 009°09'0 0.0
2017-Jun-18 17:58N 63°19' E 009°09'0 0.0
2017-Jun-18 17:28N 63°19' E 009°09'0 0.0
2017-Jun-18 16:55N 63°19' E 009°09'0 0.0
2017-Jun-18 16:28N 63°19' E 009°09'0 0.0
2017-Jun-18 15:58N 63°19' E 009°09'0 0.0
2017-Jun-18 15:28N 63°19' E 009°09'0 0.0
2017-Jun-18 14:58N 63°19' E 009°09'0 0.0
2017-Jun-18 13:58N 63°19' E 009°09'0 0.0
2017-Jun-18 13:28N 63°19' E 009°09'0 0.0
2017-Jun-18 12:58N 63°19' E 009°09'0 0.0
2017-Jun-18 12:28N 63°19' E 009°09'0 0.0
2017-Jun-18 11:58N 63°19' E 009°09'0 0.0
2017-Jun-18 11:28N 63°19' E 009°09'0 0.0
2017-Jun-18 10:58N 63°19' E 009°09'0 0.0
2017-Jun-18 10:28N 63°19' E 009°09'0 0.0
2017-Jun-18 09:58N 63°19' E 009°09'0 0.0
2017-Jun-18 09:28N 63°19' E 009°09'0 0.0
2017-Jun-18 08:58N 63°19' E 009°09'0 0.0
2017-Jun-18 08:28N 63°19' E 009°09'0 0.0
2017-Jun-18 07:58N 63°19' E 009°09'0 0.0
2017-Jun-18 07:28N 63°19' E 009°09'0 0.0
2017-Jun-18 06:58N 63°19' E 009°09'0 0.0
2017-Jun-18 06:28N 63°19' E 009°09'0 0.0
2017-Jun-18 05:58N 63°19' E 009°09'0 0.0
2017-Jun-18 05:28N 63°19' E 009°09'0 0.0
2017-Jun-18 04:58N 63°19' E 009°09'0 0.0
2017-Jun-18 04:28N 63°19' E 009°09'0 0.0
2017-Jun-18 03:58N 63°19' E 009°09'0 0.0
2017-Jun-18 03:28N 63°19' E 009°09'0 0.0
2017-Jun-18 02:58N 63°19' E 009°09'0 0.0
2017-Jun-18 02:28N 63°19' E 009°09'0 0.0
2017-Jun-18 01:58N 63°19' E 009°09'0 0.0
2017-Jun-18 01:28N 63°19' E 009°09'0 0.0
2017-Jun-18 00:58N 63°19' E 009°09'0 0.0
2017-Jun-18 00:28N 63°19' E 009°09'0 0.0
2017-Jun-17 23:58N 63°19' E 009°09'0 0.0
2017-Jun-17 23:28N 63°19' E 009°09'0 0.0
2017-Jun-17 22:58N 63°19' E 009°09'0 0.0
2017-Jun-17 22:28N 63°19' E 009°09'0 0.0
2017-Jun-17 21:58N 63°19' E 009°09'0 0.0
2017-Jun-17 21:28N 63°19' E 009°09'0 0.0
2017-Jun-17 20:58N 63°19' E 009°09'0 0.0
2017-Jun-17 20:28N 63°19' E 009°09'0 0.0
2017-Jun-17 19:58N 63°19' E 009°09'0 0.0
2017-Jun-17 19:28N 63°19' E 009°09'0 0.0
2017-Jun-17 18:58N 63°19' E 009°09'0 0.0
2017-Jun-17 18:28N 63°19' E 009°09'0 0.0
2017-Jun-17 17:58N 63°19' E 009°09'0 0.0
2017-Jun-17 17:28N 63°19' E 009°09'0 0.0
2017-Jun-17 16:58N 63°19' E 009°09'0 0.0
2017-Jun-17 16:28N 63°19' E 009°09'0 0.0
2017-Jun-17 15:58N 63°19' E 009°09'0 0.0
2017-Jun-17 15:28N 63°19' E 009°09'0 0.0
2017-Jun-17 14:58N 63°19' E 009°09'0 0.0
2017-Jun-17 14:28N 63°19' E 009°09'0 0.0
2017-Jun-17 13:28N 63°19' E 009°09'0 0.0
2017-Jun-17 12:58N 63°19' E 009°09'0 0.0
2017-Jun-17 12:28N 63°19' E 009°09'0 0.0
2017-Jun-17 11:58N 63°19' E 009°09'0 0.0
2017-Jun-17 11:28N 63°19' E 009°09'0 0.0
2017-Jun-17 10:58N 63°19' E 009°09'0 0.0
2017-Jun-17 10:28N 63°19' E 009°09'0 0.0
2017-Jun-17 09:58N 63°19' E 009°09'0 0.0
2017-Jun-17 09:28N 63°19' E 009°09'0 0.0
2017-Jun-17 08:58N 63°19' E 009°09'0 0.0
2017-Jun-17 08:28N 63°19' E 009°09'0 0.0
2017-Jun-17 07:58N 63°19' E 009°09'0 0.0
2017-Jun-17 07:28N 63°19' E 009°09'0 0.0
2017-Jun-17 06:58N 63°19' E 009°09'0 0.0
2017-Jun-17 06:28N 63°19' E 009°09'0 0.0
2017-Jun-17 05:58N 63°19' E 009°09'0 0.0
2017-Jun-17 05:28N 63°19' E 009°09'0 0.0
2017-Jun-17 04:58N 63°19' E 009°09'0 0.0
2017-Jun-17 04:28N 63°19' E 009°09'0 0.0
2017-Jun-17 03:58N 63°19' E 009°09'0 0.0
2017-Jun-17 03:28N 63°19' E 009°09'0 0.0
2017-Jun-17 02:58N 63°19' E 009°09'0 0.0
2017-Jun-17 02:28N 63°19' E 009°09'0 0.0
2017-Jun-17 01:58N 63°19' E 009°09'0 0.0
2017-Jun-17 01:28N 63°19' E 009°09'0 0.0
2017-Jun-17 00:58N 63°19' E 009°09'0 0.0
2017-Jun-17 00:28N 63°19' E 009°09'0 0.0
2017-Jun-16 23:58N 63°19' E 009°09'0 0.0
2017-Jun-16 23:28N 63°19' E 009°09'0 0.0
2017-Jun-16 22:58N 63°19' E 009°09'0 0.0
2017-Jun-16 22:28N 63°19' E 009°09'0 0.0
2017-Jun-16 21:55N 63°19' E 009°09'0 0.0
2017-Jun-16 21:28N 63°19' E 009°09'0 0.0
2017-Jun-16 20:58N 63°19' E 009°09'0 0.0
2017-Jun-16 20:28N 63°19' E 009°09'0 0.0
2017-Jun-16 19:58N 63°19' E 009°09'0 0.0
2017-Jun-16 19:28N 63°19' E 009°09'0 0.0
2017-Jun-16 18:58N 63°19' E 009°09'0 0.0
2017-Jun-16 18:28N 63°19' E 009°09'0 0.1
2017-Jun-16 18:00N 63°19' E 009°08'2 4.8
2017-Jun-16 17:30N 63°21' E 009°11'5 9.8
2017-Jun-16 17:00N 63°26' E 009°08'5 9.5
2017-Jun-16 16:30N 63°29' E 008°59'611.2
2017-Jun-16 16:00N 63°27' E 008°47'611.0
2017-Jun-16 15:30N 63°25' E 008°36'511.0
2017-Jun-16 15:00N 63°22' E 008°25'611.2
2017-Jun-16 14:30N 63°18' E 008°15'1111.3
2017-Jun-16 13:30N 63°13' E 007°53'510.2
2017-Jun-16 13:00N 63°14' E 007°42'510.3
2017-Jun-16 12:30N 63°15' E 007°30'510.7
2017-Jun-16 12:00N 63°13' E 007°19'611.0
2017-Jun-16 11:30N 63°10' E 007°09'611.0
2017-Jun-16 11:00N 63°07' E 006°59'510.8
2017-Jun-16 10:30N 63°04' E 006°49'510.8
2017-Jun-16 10:00N 63°01' E 006°39'510.8
2017-Jun-16 09:30N 62°58' E 006°30'510.8
2017-Jun-16 09:00N 62°55' E 006°20'611.2
2017-Jun-16 08:30N 62°51' E 006°10'611.0
2017-Jun-16 08:00N 62°47' E 006°01'611.1
2017-Jun-16 07:30N 62°43' E 005°53'510.8
2017-Jun-16 07:00N 62°40' E 005°44'510.9
2017-Jun-16 06:30N 62°36' E 005°36'510.8
2017-Jun-16 06:00N 62°32' E 005°28'510.7
2017-Jun-16 05:30N 62°28' E 005°20'510.8
2017-Jun-16 05:00N 62°24' E 005°12'510.7
2017-Jun-16 04:30N 62°20' E 005°05'510.5
2017-Jun-16 04:00N 62°16' E 004°59'510.5
2017-Jun-16 03:30N 62°11' E 004°53'510.6
2017-Jun-16 03:00N 62°06' E 004°48'510.4
2017-Jun-16 02:30N 62°02' E 004°43'510.2
2017-Jun-16 01:59N 61°57' E 004°38'510.2
2017-Jun-16 01:30N 61°52' E 004°34'510.6
2017-Jun-16 01:00N 61°48' E 004°29'510.4
2017-Jun-16 00:30N 61°43' E 004°24'5 9.9
2017-Jun-16 00:00N 61°38' E 004°22'510.2
2017-Jun-15 23:30N 61°33' E 004°21'510.5
2017-Jun-15 23:00N 61°28' E 004°20'611.0
2017-Jun-15 22:30N 61°22' E 004°19'611.5
2017-Jun-15 22:00N 61°17' E 004°17'  
Track history (hours):
 
Tides and Currents Weather Stations Pressure Air Temp Water Temp Dewpoint Dewpoint Depression Visibility Wind Speed Wind Dir Waves Ship Positions

Hanseatic Scout

Last reported at 2017-Jun-25 20:29 UTC. Time now 2017-Jun-25 20:55 UTC.
Position N 51°54' E 004°14'.

Length 89 m; draft 3.6 m.

Type: Ship. MMSI: 304867000.

Date/timePositionNaut miles runAvg speedWind from/ knotsBaromVisibWave heightAir tempDewpointWater temp
2017-Jun-25 20:29N 51°54' E 004°14'0 0.0
2017-Jun-25 20:01N 51°54' E 004°14'0 0.0
2017-Jun-25 19:30N 51°54' E 004°14'0 0.0
2017-Jun-25 19:00N 51°54' E 004°14'0 0.0
2017-Jun-25 18:30N 51°54' E 004°14'0 0.0
2017-Jun-25 18:00N 51°54' E 004°14'0 0.0
2017-Jun-25 17:29N 51°54' E 004°14'0 0.0
2017-Jun-25 17:00N 51°54' E 004°14'0 0.0
2017-Jun-25 16:30N 51°54' E 004°14'0 0.0
2017-Jun-25 16:00N 51°54' E 004°14'0 0.0
2017-Jun-25 15:30N 51°54' E 004°14'0 0.0
2017-Jun-25 15:00N 51°54' E 004°14'0 0.0
2017-Jun-25 14:30N 51°54' E 004°14'0 0.0
2017-Jun-25 13:30N 51°54' E 004°14'0 0.0
2017-Jun-25 13:00N 51°54' E 004°14'0 0.1
2017-Jun-25 12:30N 51°54' E 004°14'0 0.0
2017-Jun-25 12:00N 51°54' E 004°14'0 0.0
2017-Jun-25 11:30N 51°54' E 004°14'0 0.1
2017-Jun-25 11:00N 51°54' E 004°14'0 0.0
2017-Jun-25 10:29N 51°54' E 004°14'0 0.0
2017-Jun-25 10:00N 51°54' E 004°14'0 0.0
2017-Jun-25 09:29N 51°54' E 004°14'0 0.0
2017-Jun-25 09:00N 51°54' E 004°14'0 0.0
2017-Jun-25 08:30N 51°54' E 004°14'0 0.0
2017-Jun-25 08:00N 51°54' E 004°14'0 0.0
2017-Jun-25 07:30N 51°54' E 004°14'0 0.0
2017-Jun-25 06:59N 51°54' E 004°14'0 0.0
2017-Jun-25 06:30N 51°54' E 004°14'0 0.0
2017-Jun-25 06:00N 51°54' E 004°14'0 0.0
2017-Jun-25 05:30N 51°54' E 004°14'0 0.0
2017-Jun-25 05:01N 51°54' E 004°14'0 0.0
2017-Jun-25 04:30N 51°54' E 004°14'0 0.0
2017-Jun-25 04:01N 51°54' E 004°14'0 0.0
2017-Jun-25 03:30N 51°54' E 004°14'0 0.1
2017-Jun-25 03:00N 51°54' E 004°14'3 5.4
2017-Jun-25 02:30N 51°56' E 004°12'4 7.6
2017-Jun-25 02:01N 51°58' E 004°07'511.0
2017-Jun-25 01:30N 52°00' E 003°58'510.5
2017-Jun-25 01:01N 52°01' E 003°50'4 8.3
2017-Jun-25 00:30N 52°05' E 003°47'713.4
2017-Jun-25 00:00N 52°12' E 003°47'0 0.4
2017-Jun-24 23:30N 52°12' E 003°47'4 7.0
2017-Jun-24 22:54N 52°16' E 003°47'8 7.0
2017-Jun-24 21:47N 52°24' E 003°50'2 7.7
2017-Jun-24 21:30N 52°24' E 003°53'4 8.0
2017-Jun-24 21:00N 52°25' E 003°59'4 7.7
2017-Jun-24 20:30N 52°26' E 004°06'611.1
2017-Jun-24 20:00N 52°27' E 004°15'510.6
2017-Jun-24 19:30N 52°27' E 004°23'5 9.7
2017-Jun-24 19:00N 52°28' E 004°31'3 6.0
2017-Jun-24 18:31N 52°28' E 004°36'2 4.2
2017-Jun-24 18:01N 52°28' E 004°39'611.6
2017-Jun-24 17:30N 52°25' E 004°48'2 4.8
2017-Jun-24 17:00N 52°24' E 004°51'0 0.0
2017-Jun-24 16:30N 52°24' E 004°51'0 0.0
2017-Jun-24 16:00N 52°24' E 004°51'0 0.0
2017-Jun-24 15:30N 52°24' E 004°51'0 0.0
2017-Jun-24 15:00N 52°24' E 004°51'0 0.0
2017-Jun-24 14:00N 52°24' E 004°51'0 0.0
2017-Jun-24 13:30N 52°24' E 004°51'0 0.0
2017-Jun-24 13:00N 52°24' E 004°51'0 0.0
2017-Jun-24 12:30N 52°24' E 004°51'0 0.0
2017-Jun-24 12:00N 52°24' E 004°51'0 0.0
2017-Jun-24 11:30N 52°24' E 004°51'0 0.0
2017-Jun-24 11:00N 52°24' E 004°51'0 0.0
2017-Jun-24 10:30N 52°24' E 004°51'0 0.0
2017-Jun-24 09:59N 52°24' E 004°51'0 0.0
2017-Jun-24 09:29N 52°24' E 004°51'0 0.0
2017-Jun-24 08:59N 52°24' E 004°51'0 0.0
2017-Jun-24 08:29N 52°24' E 004°51'0 0.0
2017-Jun-24 07:59N 52°24' E 004°51'0 0.0
2017-Jun-24 07:29N 52°24' E 004°51'0 0.0
2017-Jun-24 06:59N 52°24' E 004°51'0 0.0
2017-Jun-24 06:29N 52°24' E 004°51'0 0.4
2017-Jun-24 06:00N 52°24' E 004°52'1 3.0
2017-Jun-24 05:31N 52°25' E 004°50'5 9.5
2017-Jun-24 05:00N 52°26' E 004°42'4 8.0
2017-Jun-24 04:31N 52°28' E 004°36'0 0.4
2017-Jun-24 04:01N 52°28' E 004°36'0 0.0
2017-Jun-24 03:30N 52°28' E 004°36'0 0.0
2017-Jun-24 03:01N 52°28' E 004°36'0 0.0
2017-Jun-24 02:30N 52°28' E 004°36'0 0.0
2017-Jun-24 02:00N 52°28' E 004°36'0 0.0
2017-Jun-24 01:30N 52°28' E 004°36'0 0.0
2017-Jun-24 01:00N 52°28' E 004°36'0 0.0
2017-Jun-24 00:30N 52°28' E 004°36'0 0.2
2017-Jun-24 00:01N 52°28' E 004°36'3 5.8
2017-Jun-23 23:31N 52°28' E 004°31'4 8.4
2017-Jun-23 23:00N 52°28' E 004°24'3 6.2
2017-Jun-23 22:30N 52°28' E 004°19'3 6.6
2017-Jun-23 22:00N 52°29' E 004°14'4 7.4
2017-Jun-23 21:30N 52°31' E 004°08'4 7.9
2017-Jun-23 21:00N 52°34' E 004°06'4 7.6
2017-Jun-23 20:30N 52°38' E 004°03'4 7.5
2017-Jun-23 19:59N 52°41' E 004°01'59 7.3
2017-Jun-23 11:55N 53°36' E 004°39'3 7.0
2017-Jun-23 11:30N 53°39' E 004°41'4 6.9
2017-Jun-23 10:55N 53°42' E 004°43'4 9.8
2017-Jun-23 10:29N 53°46' E 004°45'510.2
2017-Jun-23 10:00N 53°51' E 004°48'510.0
2017-Jun-23 09:28N 53°56' E 004°51'5 9.9
2017-Jun-23 08:58N 54°01' E 004°55'5 9.6
2017-Jun-23 08:25N 54°05' E 004°58'410.0
2017-Jun-23 07:58N 54°10' E 004°57'510.1
2017-Jun-23 07:29N 54°15' E 004°56'510.1
2017-Jun-23 07:00N 54°20' E 004°55'510.2
2017-Jun-23 06:29N 54°25' E 004°53'510.3
2017-Jun-23 05:58N 54°30' E 004°52'510.3
2017-Jun-23 05:30N 54°35' E 004°50'610.4
2017-Jun-23 04:54N 54°41' E 004°49'510.4
2017-Jun-23 04:27N 54°46' E 004°47'610.4
2017-Jun-23 03:50N 54°52' E 004°46'510.3
2017-Jun-23 03:20N 54°57' E 004°45'510.2
2017-Jun-23 02:52N 55°02' E 004°43'412 9.7
2017-Jun-21 08:32N 61°53' E 004°36'1 9.8
2017-Jun-21 08:26N 61°54' E 004°37'5 9.8
2017-Jun-21 07:54N 61°59' E 004°41'4 9.3
2017-Jun-21 07:29N 62°03' E 004°44'4 9.1
2017-Jun-21 07:00N 62°07' E 004°48'5 9.3
2017-Jun-21 06:30N 62°11' E 004°52'4 9.0
2017-Jun-21 06:00N 62°14' E 004°58'5 8.7
2017-Jun-21 05:29N 62°18' E 005°03'4 8.4
2017-Jun-21 05:00N 62°22' E 005°08'4 8.2
2017-Jun-21 04:30N 62°25' E 005°14'4 8.6
2017-Jun-21 04:00N 62°28' E 005°20'4 8.9
2017-Jun-21 03:30N 62°31' E 005°26'4 8.7
2017-Jun-21 03:00N 62°34' E 005°33'5 8.9
2017-Jun-21 02:30N 62°37' E 005°40'4 8.6
2017-Jun-21 02:00N 62°40' E 005°46'4 8.5
2017-Jun-21 01:30N 62°43' E 005°53'4 8.4
2017-Jun-21 01:00N 62°47' E 005°59'4 8.1
2017-Jun-21 00:30N 62°50' E 006°05'4 8.1
2017-Jun-21 00:00N 62°52' E 006°12'4 8.1
2017-Jun-20 23:30N 62°54' E 006°19'4 8.4
2017-Jun-20 23:00N 62°57' E 006°27'4 8.3
2017-Jun-20 22:30N 62°59' E 006°34'4 7.8
2017-Jun-20 21:59N 63°01' E 006°42'4 7.9
2017-Jun-20 21:29N 63°04' E 006°49'4 7.8
2017-Jun-20 21:00N 63°06' E 006°55'4 7.8
2017-Jun-20 20:30N 63°08' E 007°02'4 7.8
2017-Jun-20 20:00N 63°10' E 007°10'4 7.4
2017-Jun-20 19:30N 63°13' E 007°16'3 6.9
2017-Jun-20 19:00N 63°14' E 007°23'4 7.1
2017-Jun-20 18:30N 63°15' E 007°31'3 6.8
2017-Jun-20 18:00N 63°15' E 007°39'4 7.7
2017-Jun-20 17:30N 63°12' E 007°45'5 9.4
2017-Jun-20 17:00N 63°08' E 007°41'5 9.7
2017-Jun-20 16:30N 63°03' E 007°41'4 8.0
2017-Jun-20 16:00N 62°59' E 007°42'510.8
2017-Jun-20 15:30N 62°56' E 007°32'4 7.6
2017-Jun-20 15:00N 62°57' E 007°24'0 0.0
2017-Jun-20 14:27N 62°57' E 007°24'0 0.0
2017-Jun-20 13:27N 62°57' E 007°24'0 0.0
2017-Jun-20 13:00N 62°57' E 007°24'0 0.0
2017-Jun-20 12:30N 62°57' E 007°24'0 0.0
2017-Jun-20 11:57N 62°57' E 007°24'0 0.0
2017-Jun-20 11:30N 62°57' E 007°24'0 0.0
2017-Jun-20 11:00N 62°57' E 007°24'0 0.0
2017-Jun-20 10:27N 62°57' E 007°24'0 0.0
2017-Jun-20 10:00N 62°57' E 007°24'0 0.0
2017-Jun-20 09:30N 62°57' E 007°24'0 0.0
2017-Jun-20 09:00N 62°57' E 007°24'0 0.0
2017-Jun-20 08:27N 62°57' E 007°24'0 0.0
2017-Jun-20 07:57N 62°57' E 007°24'0 0.0
2017-Jun-20 07:27N 62°57' E 007°24'0 0.0
2017-Jun-20 07:00N 62°57' E 007°24'0 0.0
2017-Jun-20 06:27N 62°57' E 007°24'0 0.0
2017-Jun-20 06:00N 62°57' E 007°24'0 0.0
2017-Jun-20 05:30N 62°57' E 007°24'0 0.0
2017-Jun-20 05:00N 62°57' E 007°24'0 0.0
2017-Jun-20 04:27N 62°57' E 007°24'0 0.0
2017-Jun-20 03:54N 62°57' E 007°24'0 0.0
2017-Jun-20 03:30N 62°57' E 007°24'0 0.0
2017-Jun-20 03:00N 62°57' E 007°24'0 0.0
2017-Jun-20 02:27N 62°57' E 007°24'0 0.0
2017-Jun-20 01:57N 62°57' E 007°24'0 0.0
2017-Jun-20 01:24N 62°57' E 007°24'2 4.6
2017-Jun-20 00:59N 62°57' E 007°28'5 9.6
2017-Jun-20 00:30N 62°58' E 007°38'611.5
2017-Jun-20 00:00N 63°01' E 007°49'611.2
2017-Jun-19 23:30N 63°05' E 007°56'510.0
2017-Jun-19 23:00N 63°09' E 007°49'4 8.2
2017-Jun-19 22:30N 63°13' E 007°54'510.4
2017-Jun-19 22:00N 63°15' E 008°04'510.3
2017-Jun-19 21:30N 63°18' E 008°14'510.5
2017-Jun-19 21:00N 63°22' E 008°23'510.5
2017-Jun-19 20:30N 63°25' E 008°32'510.1
2017-Jun-19 20:00N 63°26' E 008°43'510.2
2017-Jun-19 19:30N 63°28' E 008°54'510.3
2017-Jun-19 19:00N 63°28' E 009°05'711.7
2017-Jun-19 18:26N 63°22' E 009°12'3 6.7
2017-Jun-19 17:58N 63°19' E 009°09'0 0.0
2017-Jun-19 17:28N 63°19' E 009°09'0 0.0
2017-Jun-19 16:55N 63°19' E 009°09'0 0.0
2017-Jun-19 16:28N 63°19' E 009°09'0 0.0
2017-Jun-19 15:58N 63°19' E 009°09'0 0.0
2017-Jun-19 15:28N 63°19' E 009°09'0 0.0
2017-Jun-19 14:58N 63°19' E 009°09'0 0.0
2017-Jun-19 14:28N 63°19' E 009°09'0 0.0
2017-Jun-19 13:28N 63°19' E 009°09'0 0.0
2017-Jun-19 12:58N 63°19' E 009°09'0 0.0
2017-Jun-19 12:28N 63°19' E 009°09'0 0.0
2017-Jun-19 11:58N 63°19' E 009°09'0 0.0
2017-Jun-19 11:28N 63°19' E 009°09'0 0.0
2017-Jun-19 10:58N 63°19' E 009°09'0 0.0
2017-Jun-19 10:28N 63°19' E 009°09'0 0.0
2017-Jun-19 09:58N 63°19' E 009°09'0 0.0
2017-Jun-19 09:28N 63°19' E 009°09'0 0.0
2017-Jun-19 08:58N 63°19' E 009°09'0 0.0
2017-Jun-19 08:28N 63°19' E 009°09'0 0.0
2017-Jun-19 07:58N 63°19' E 009°09'0 0.0
2017-Jun-19 07:28N 63°19' E 009°09'0 0.0
2017-Jun-19 06:58N 63°19' E 009°09'0 0.0
2017-Jun-19 06:28N 63°19' E 009°09'0 0.0
2017-Jun-19 05:58N 63°19' E 009°09'0 0.0
2017-Jun-19 05:28N 63°19' E 009°09'0 0.0
2017-Jun-19 04:58N 63°19' E 009°09'0 0.0
2017-Jun-19 04:28N 63°19' E 009°09'0 0.0
2017-Jun-19 03:58N 63°19' E 009°09'0 0.0
2017-Jun-19 03:28N 63°19' E 009°09'0 0.0
2017-Jun-19 02:58N 63°19' E 009°09'0 0.0
2017-Jun-19 02:28N 63°19' E 009°09'0 0.0
2017-Jun-19 01:55N 63°19' E 009°09'0 0.0
2017-Jun-19 01:28N 63°19' E 009°09'0 0.0
2017-Jun-19 00:58N 63°19' E 009°09'0 0.0
2017-Jun-19 00:28N 63°19' E 009°09'0 0.0
2017-Jun-18 23:58N 63°19' E 009°09'0 0.0
2017-Jun-18 23:28N 63°19' E 009°09'0 0.0
2017-Jun-18 22:58N 63°19' E 009°09'0 0.0
2017-Jun-18 22:28N 63°19' E 009°09'0 0.0
2017-Jun-18 21:58N 63°19' E 009°09'0 0.0
2017-Jun-18 21:28N 63°19' E 009°09'0 0.0
2017-Jun-18 20:58N 63°19' E 009°09'0 0.0
2017-Jun-18 20:28N 63°19' E 009°09'0 0.0
2017-Jun-18 19:58N 63°19' E 009°09'0 0.0
2017-Jun-18 19:28N 63°19' E 009°09'0 0.0
2017-Jun-18 18:58N 63°19' E 009°09'0 0.0
2017-Jun-18 18:28N 63°19' E 009°09'0 0.0
2017-Jun-18 17:58N 63°19' E 009°09'0 0.0
2017-Jun-18 17:28N 63°19' E 009°09'0 0.0
2017-Jun-18 16:55N 63°19' E 009°09'0 0.0
2017-Jun-18 16:28N 63°19' E 009°09'0 0.0
2017-Jun-18 15:58N 63°19' E 009°09'0 0.0
2017-Jun-18 15:28N 63°19' E 009°09'0 0.0
2017-Jun-18 14:58N 63°19' E 009°09'0 0.0
2017-Jun-18 13:58N 63°19' E 009°09'0 0.0
2017-Jun-18 13:28N 63°19' E 009°09'0 0.0
2017-Jun-18 12:58N 63°19' E 009°09'0 0.0
2017-Jun-18 12:28N 63°19' E 009°09'0 0.0
2017-Jun-18 11:58N 63°19' E 009°09'0 0.0
2017-Jun-18 11:28N 63°19' E 009°09'0 0.0
2017-Jun-18 10:58N 63°19' E 009°09'0 0.0
2017-Jun-18 10:28N 63°19' E 009°09'0 0.0
2017-Jun-18 09:58N 63°19' E 009°09'0 0.0
2017-Jun-18 09:28N 63°19' E 009°09'0 0.0
2017-Jun-18 08:58N 63°19' E 009°09'0 0.0
2017-Jun-18 08:28N 63°19' E 009°09'0 0.0
2017-Jun-18 07:58N 63°19' E 009°09'0 0.0
2017-Jun-18 07:28N 63°19' E 009°09'0 0.0
2017-Jun-18 06:58N 63°19' E 009°09'0 0.0
2017-Jun-18 06:28N 63°19' E 009°09'0 0.0
2017-Jun-18 05:58N 63°19' E 009°09'0 0.0
2017-Jun-18 05:28N 63°19' E 009°09'0 0.0
2017-Jun-18 04:58N 63°19' E 009°09'0 0.0
2017-Jun-18 04:28N 63°19' E 009°09'0 0.0
2017-Jun-18 03:58N 63°19' E 009°09'0 0.0
2017-Jun-18 03:28N 63°19' E 009°09'0 0.0
2017-Jun-18 02:58N 63°19' E 009°09'0 0.0
2017-Jun-18 02:28N 63°19' E 009°09'0 0.0
2017-Jun-18 01:58N 63°19' E 009°09'0 0.0
2017-Jun-18 01:28N 63°19' E 009°09'0 0.0
2017-Jun-18 00:58N 63°19' E 009°09'0 0.0
2017-Jun-18 00:28N 63°19' E 009°09'0 0.0
2017-Jun-17 23:58N 63°19' E 009°09'0 0.0
2017-Jun-17 23:28N 63°19' E 009°09'0 0.0
2017-Jun-17 22:58N 63°19' E 009°09'0 0.0
2017-Jun-17 22:28N 63°19' E 009°09'0 0.0
2017-Jun-17 21:58N 63°19' E 009°09'0 0.0
2017-Jun-17 21:28N 63°19' E 009°09'0 0.0
2017-Jun-17 20:58N 63°19' E 009°09'0 0.0
2017-Jun-17 20:28N 63°19' E 009°09'0 0.0
2017-Jun-17 19:58N 63°19' E 009°09'0 0.0
2017-Jun-17 19:28N 63°19' E 009°09'0 0.0
2017-Jun-17 18:58N 63°19' E 009°09'0 0.0
2017-Jun-17 18:28N 63°19' E 009°09'0 0.0
2017-Jun-17 17:58N 63°19' E 009°09'0 0.0
2017-Jun-17 17:28N 63°19' E 009°09'0 0.0
2017-Jun-17 16:58N 63°19' E 009°09'0 0.0
2017-Jun-17 16:28N 63°19' E 009°09'0 0.0
2017-Jun-17 15:58N 63°19' E 009°09'0 0.0
2017-Jun-17 15:28N 63°19' E 009°09'0 0.0
2017-Jun-17 14:58N 63°19' E 009°09'0 0.0
2017-Jun-17 14:28N 63°19' E 009°09'0 0.0
2017-Jun-17 13:28N 63°19' E 009°09'0 0.0
2017-Jun-17 12:58N 63°19' E 009°09'0 0.0
2017-Jun-17 12:28N 63°19' E 009°09'0 0.0
2017-Jun-17 11:58N 63°19' E 009°09'0 0.0
2017-Jun-17 11:28N 63°19' E 009°09'0 0.0
2017-Jun-17 10:58N 63°19' E 009°09'0 0.0
2017-Jun-17 10:28N 63°19' E 009°09'0 0.0
2017-Jun-17 09:58N 63°19' E 009°09'0 0.0
2017-Jun-17 09:28N 63°19' E 009°09'0 0.0
2017-Jun-17 08:58N 63°19' E 009°09'0 0.0
2017-Jun-17 08:28N 63°19' E 009°09'0 0.0
2017-Jun-17 07:58N 63°19' E 009°09'0 0.0
2017-Jun-17 07:28N 63°19' E 009°09'0 0.0
2017-Jun-17 06:58N 63°19' E 009°09'0 0.0
2017-Jun-17 06:28N 63°19' E 009°09'0 0.0
2017-Jun-17 05:58N 63°19' E 009°09'0 0.0
2017-Jun-17 05:28N 63°19' E 009°09'0 0.0
2017-Jun-17 04:58N 63°19' E 009°09'0 0.0
2017-Jun-17 04:28N 63°19' E 009°09'0 0.0
2017-Jun-17 03:58N 63°19' E 009°09'0 0.0
2017-Jun-17 03:28N 63°19' E 009°09'0 0.0
2017-Jun-17 02:58N 63°19' E 009°09'0 0.0
2017-Jun-17 02:28N 63°19' E 009°09'0 0.0
2017-Jun-17 01:58N 63°19' E 009°09'0 0.0
2017-Jun-17 01:28N 63°19' E 009°09'0 0.0
2017-Jun-17 00:58N 63°19' E 009°09'0 0.0
2017-Jun-17 00:28N 63°19' E 009°09'0 0.0
2017-Jun-16 23:58N 63°19' E 009°09'0 0.0
2017-Jun-16 23:28N 63°19' E 009°09'0 0.0
2017-Jun-16 22:58N 63°19' E 009°09'0 0.0
2017-Jun-16 22:28N 63°19' E 009°09'0 0.0
2017-Jun-16 21:55N 63°19' E 009°09'0 0.0
2017-Jun-16 21:28N 63°19' E 009°09'0 0.0
2017-Jun-16 20:58N 63°19' E 009°09'0 0.0
2017-Jun-16 20:28N 63°19' E 009°09'0 0.0
2017-Jun-16 19:58N 63°19' E 009°09'0 0.0
2017-Jun-16 19:28N 63°19' E 009°09'0 0.0
2017-Jun-16 18:58N 63°19' E 009°09'0 0.0
2017-Jun-16 18:28N 63°19' E 009°09'0 0.1
2017-Jun-16 18:00N 63°19' E 009°08'2 4.8
2017-Jun-16 17:30N 63°21' E 009°11'5 9.8
2017-Jun-16 17:00N 63°26' E 009°08'5 9.5
2017-Jun-16 16:30N 63°29' E 008°59'611.2
2017-Jun-16 16:00N 63°27' E 008°47'611.0
2017-Jun-16 15:30N 63°25' E 008°36'511.0
2017-Jun-16 15:00N 63°22' E 008°25'611.2
2017-Jun-16 14:30N 63°18' E 008°15'1111.3
2017-Jun-16 13:30N 63°13' E 007°53'510.2
2017-Jun-16 13:00N 63°14' E 007°42'510.3
2017-Jun-16 12:30N 63°15' E 007°30'510.7
2017-Jun-16 12:00N 63°13' E 007°19'611.0
2017-Jun-16 11:30N 63°10' E 007°09'611.0
2017-Jun-16 11:00N 63°07' E 006°59'510.8
2017-Jun-16 10:30N 63°04' E 006°49'510.8
2017-Jun-16 10:00N 63°01' E 006°39'510.8
2017-Jun-16 09:30N 62°58' E 006°30'510.8
2017-Jun-16 09:00N 62°55' E 006°20'611.2
2017-Jun-16 08:30N 62°51' E 006°10'611.0
2017-Jun-16 08:00N 62°47' E 006°01'611.1
2017-Jun-16 07:30N 62°43' E 005°53'510.8
2017-Jun-16 07:00N 62°40' E 005°44'510.9
2017-Jun-16 06:30N 62°36' E 005°36'510.8
2017-Jun-16 06:00N 62°32' E 005°28'510.7
2017-Jun-16 05:30N 62°28' E 005°20'510.8
2017-Jun-16 05:00N 62°24' E 005°12'510.7
2017-Jun-16 04:30N 62°20' E 005°05'510.5
2017-Jun-16 04:00N 62°16' E 004°59'510.5
2017-Jun-16 03:30N 62°11' E 004°53'510.6
2017-Jun-16 03:00N 62°06' E 004°48'510.4
2017-Jun-16 02:30N 62°02' E 004°43'510.2
2017-Jun-16 01:59N 61°57' E 004°38'510.2
2017-Jun-16 01:30N 61°52' E 004°34'510.6
2017-Jun-16 01:00N 61°48' E 004°29'510.4
2017-Jun-16 00:30N 61°43' E 004°24'5 9.9
2017-Jun-16 00:00N 61°38' E 004°22'510.2
2017-Jun-15 23:30N 61°33' E 004°21'510.5
2017-Jun-15 23:00N 61°28' E 004°20'611.0
2017-Jun-15 22:30N 61°22' E 004°19'611.5
2017-Jun-15 22:00N 61°17' E 004°17'  

Dump ship's entire track history